Portada
METAR-TAF:

METAR-TAF

Aeroports :

Walvis Bay, Namíbia

latitud: 22-58-59S, longitud: 014-39E, altitud: 46 m

Observació

L'informe es va fer fa 34 minuts, a les 06:00 UTC
Vent 17 kt del Est
Temperatura 21°C
Humitat 30%
Pressió 1019 hPa

METAR: FYWB 250600Z AUTO 10017KT //// // ////// 21/03 Q1019

Hora: 08:34 (06:34 UTC)

Pronòstic

L'informe es va fer fa 2 hores i 34 minuts, a les 04:00 UTC
Pronòstic vàlid del 25 a les 06 UTC al 26 a les 06 UTC
Vent 17 kt del Est/Sud-Est
Visibilitat 10 km o més
sense núvols per sota de 1500 mi sense presència de cumulonimbus.
Temporalment
l' 25 a les 07 UTC al 25 a les 10 UTC
Vent 10 kt del Nord-Est amb ràfegues de 20 kt
Visibilitat: 6000 m
tempesta de sorra
Evolucionant progressivament
l' 25 a les 11 UTC al 25 a les 13 UTC
Vent 14 kt del Est/Nord-Est
Visibilitat 10 km o més
sense núvols per sota de 1500 mi sense presència de cumulonimbus.

TAF: FYWB 250400Z 2506/2606 12017KT CAVOK TEMPO 2507/2510 05010G20KT 6000 SS NSC BECMG 2511/2513 06014KT CAVOK

Observacions i pronòstics meteorològics de més de 4000 aeroports (METAR i TAF).

Les estacions disponibles són els punts grocs i vermells al mapa.

Posi el ratolí al punt desitjat per veure el nom de l'estació.

Feu clic per veure les observacions i els pronòstics meteorològics.

Per canviar el mapa: feu clic els botons verds amb una creu de color negre per apropar; al botó verd amb un guió per allunyar la imatge; o en les fletxes verdes per a mapes adjacents.


METAR-TAF: